Le climat de Mai 2009 à Pontoise - Val d'Oise
Pontoise fait partie de l'agglomération de Cergy Pontoise



Cliquez ici, pour voir le temps en direct et ici pour installer la météo de Pontoise en temps réel sur votre PC.


Tableau des données
Graphique des températures
Graphique des précipitations et humidité
Graphique de la pression atmosphérique
Rose des vents
Commentaires

 

Date Vitesse vent (en km/h) Vent maxi Vent mini Humidité (en %) Humidité min Humidité max Température (en°C) Temp Min Temp max Press. Atm (Hpa) Press. Mini (Hpa) Press Maxi. (Hpa) Pluie    (mm)
01/05/2009 3,0 20,0 0,0 45,0 11,0 86,0 14,8 4,2 28,1 1019,6 1016,0 1024,0 0,0
02/05/2009 2,0 15,0 0,0 56,0 19,0 91,0 12,3 3,5 22,2 1025,6 1024,0 1027,0 0,0
03/05/2009 2,0 17,0 0,0 59,0 24,0 97,0 10,6 5,2 17,8 1023,8 1022,0 1025,0 0,0
04/05/2009 3,0 19,0 0,0 44,0 14,0 87,0 11,6 2,0 22,6 1023,8 1023,0 1025,0 0,0
05/05/2009 6,0 21,0 0,0 45,0 26,0 75,0 12,4 5,7 18,9 1021,5 1020,0 1023,0 0,0
06/05/2009 7,0 24,0 0,0 38,0 13,0 82,0 14,0 7,1 24,2 1018,2 1016,0 1020,0 0,0
07/05/2009 3,0 20,0 0,0 46,0 10,0 91,0 16,8 4,9 31,2 1012,4 1008,0 1016,0 0,0
08/05/2009 5,0 27,0 0,0 46,0 13,0 90,0 14,4 7,0 23,8 1011,7 1008,0 1016,0 0,0
09/05/2009 2,0 13,0 0,0 43,0 16,0 86,0 13,7 5,4 22,3 1013,2 1011,0 1016,0 0,0
10/05/2009 5,0 21,0 0,0 41,0 15,0 87,0 15,8 7,4 26,3 1012,4 1009,0 1014,0 1,0
11/05/2009 6,0 27,0 0,0 65,0 39,0 98,0 14,8 13,7 16,2 1010,6 1010,0 1011,0 3,0
12/05/2009 5,0 23,0 0,0 65,0 24,0 93,0 14,2 10,9 21,1 1009,2 1007,0 1011,0 21,0
13/05/2009 2,0 10,0 0,0 63,0 20,0 94,0 16,5 11,9 25,9 1009,0 1006,0 1011,0 0,0
14/05/2009 2,0 18,0 0,0 70,0 20,0 98,0 16,4 13,2 26,2 1003,3 1001,0 1006,0 4,0
15/05/2009 7,0 28,0 0,0 54,0 15,0 96,0 14,0 8,5 22,2 1003,2 1001,0 1007,0 6,0
16/05/2009 7,0 26,0 0,0 40,0 16,0 76,0 14,1 7,0 22,7 1007,4 1006,0 1009,0 0,0
17/05/2009 7,0 32,0 0,0 48,0 17,0 81,0 13,3 8,7 21,1 1008,6 1006,0 1012,0 1,0
18/05/2009 6,0 28,0 0,0 41,0 13,0 93,0 14,5 6,7 25,0 1014,4 1012,0 1016,0 0,0
19/05/2009 4,0 21,0 0,0 43,0 12,0 90,0 15,8 6,9 26,9 1016,6 1016,0 1018,0 0,0
20/05/2009 2,0 14,0 0,0 41,0 11,0 87,0 17,2 5,7 29,8 1016,0 1012,0 1018,0 0,0
21/05/2009 2,0 16,0 0,0 43,0 11,0 86,0 17,9 10,1 28,8 1010,9 1009,0 1012,0 0,0
22/05/2009 3,0 21,0 0,0 41,0 12,0 83,0 15,2 5,4 26,6 1014,3 1012,0 1016,0 0,0
23/05/2009 4,0 17,0 0,0 36,0 12,0 78,0 16,6 6,6 26,9 1012,9 1010,0 1016,0 0,0
24/05/2009 2,0 13,0 0,0 40,0 9,0 88,0 22,0 11,4 34,4 1013,1 1012,0 1014,0 0,0
25/05/2009 5,0 21,0 0,0 36,0 11,0 74,0 24,0 16,0 35,5 1009,2 1004,0 1013,0 0,0
26/05/2009 9,0 27,0 0,0 52,0 18,0 94,0 15,6 7,7 21,2 1012,0 1005,0 1021,0 6,0
27/05/2009 7,0 25,0 0,0 45,0 15,0 97,0 13,2 6,2 20,0 1023,6 1021,0 1025,0 0,0
28/05/2009 5,0 18,0 0,0 56,0 23,0 88,0 16,2 13,1 22,2 1026,2 1023,0 1028,0 0,0
29/05/2009 6,0 24,0 0,0 43,0 13,0 96,0 17,6 10,0 25,8 1024,9 1020,0 1028,0 0,0
30/05/2009 8,0 28,0 0,0 19,0 12,0 37,0 18,4 10,9 26,0 1018,1 1016,0 1021,0 0,0
31/05/2009 5,0 21,0 0,0 31,0 11,0 65,0 18,0 9,1 28,3 1016,8 1016,0 1018,0 0,0
Somme / moy 4,6 21,1 0,0 46,3 16,0 85,9 15,5 8,1 24,8 1014,9 1001,0 1028,0 42,0

Températures Mai 2009

Précipitations Pontoise

Pression atmosphérique

Vent

Bilan              
Pression atmosphérique la plus basse : 1001,0 HPa
Pression atmosphérique la plus haute : 1024,0 HPa
Température la plus basse : 2,0 °C
Température la plus élevée : 35,5 °C
Moyenne minima : 8,1 °C
Moyenne maxima : 24,8 °C
Moyenne : 16,5 °C
Humidité la plus basse  : 9,0 %
Humidité la plus élevée : 98,0 %
Total précipitations : 42,0 mm
Nombre de jours de pluie : 7
Nombre de jours > 1mm : 7
Nombre de jours > 10 mm : 1

 

 

Bien que perturbé le temps est sec. La végétation ne souffre pas trop, les pluies regroupées de la mi-Mai ont fait du bien.

Retour au sommaire